Time;durP1;ratioP1;P1;durP2;ratioP2;P2;SDS_P1;SDS_P2;PMS_P1;PMS_P2;Temp;Humidity;BMP_temperature;BMP_pressure;BME280_temperature;BME280_humidity;BME280_pressure;Samples;Min_cycle;Max_cycle;Signal;HPM_P1;HPM_P2
2022/11/03 00:01:18;;;;;;;10.80;4.78;;;;;;;2.87;100.00;99029.84;4159644;28;20041;-72
2022/11/03 00:03:18;;;;;;;11.27;4.72;;;;;;;2.77;100.00;99027.38;4158467;28;20077;-72
2022/11/03 00:07:37;;;;;;;7.40;4.72;;;;;;;2.56;100.00;99029.00;4156952;28;20048;-72
2022/11/03 00:09:37;;;;;;;8.93;5.65;;;;;;;2.44;100.00;99032.31;4156323;28;20041;-72
2022/11/03 00:11:39;;;;;;;10.02;5.10;;;;;;;2.37;100.00;99026.47;4155951;28;20437;-72
2022/11/03 00:13:41;;;;;;;9.50;4.40;;;;;;;2.39;100.00;99024.22;4155458;28;20050;-72
2022/11/03 00:15:48;;;;;;;11.18;5.22;;;;;;;2.32;100.00;99027.41;4154955;28;20576;-72
2022/11/03 00:17:49;;;;;;;8.00;4.65;;;;;;;2.26;100.00;99036.84;4155749;28;20115;-72
2022/11/03 00:19:49;;;;;;;9.88;4.30;;;;;;;2.28;100.00;99031.88;4156840;28;20046;-72
2022/11/03 00:21:49;;;;;;;14.30;5.57;;;;;;;2.27;100.00;99024.00;4155707;28;20756;-72
2022/11/03 00:23:50;;;;;;;10.85;4.20;;;;;;;2.22;100.00;99025.72;4154347;28;20179;-72
2022/11/03 00:25:51;;;;;;;10.98;4.97;;;;;;;2.15;100.00;99019.91;4156123;28;20417;-72
2022/11/03 00:27:55;;;;;;;9.55;4.45;;;;;;;2.14;100.00;99018.28;4155528;28;20044;-72
2022/11/03 00:29:55;;;;;;;9.93;4.72;;;;;;;2.13;100.00;99010.41;4155370;28;20055;-72
2022/11/03 00:31:55;;;;;;;10.20;4.57;;;;;;;2.11;100.00;99018.09;4157640;28;20125;-72
2022/11/03 00:33:56;;;;;;;10.95;4.72;;;;;;;2.10;100.00;99014.56;4155934;28;20076;-72
2022/11/03 00:35:58;;;;;;;7.07;4.65;;;;;;;2.07;100.00;99017.91;4157130;28;20077;-72
2022/11/03 00:37:58;;;;;;;6.55;4.47;;;;;;;2.09;100.00;99009.41;4155300;28;20036;-71
2022/11/03 00:39:59;;;;;;;11.07;4.40;;;;;;;2.18;100.00;99008.34;4156841;28;20450;-72
2022/11/03 00:41:59;;;;;;;7.55;4.32;;;;;;;2.18;100.00;99004.81;4160862;28;20512;-72
2022/11/03 00:44:00;;;;;;;9.45;4.50;;;;;;;2.19;100.00;98996.31;4153728;28;20132;-72
2022/11/03 00:46:01;;;;;;;7.25;3.90;;;;;;;2.19;100.00;98996.31;4155708;28;20248;-71
2022/11/03 00:50:20;;;;;;;11.25;5.13;;;;;;;2.20;100.00;98988.94;4154885;28;20044;-72
2022/11/03 00:52:20;;;;;;;17.40;7.53;;;;;;;2.26;100.00;98984.97;4155327;28;20474;-72
2022/11/03 00:54:21;;;;;;;8.18;4.82;;;;;;;2.28;100.00;98990.91;4155379;28;20606;-72
2022/11/03 00:56:27;;;;;;;12.55;6.00;;;;;;;2.28;100.00;98985.47;4157685;28;20076;-71
2022/11/03 00:58:28;;;;;;;15.00;5.57;;;;;;;2.30;100.00;98979.69;4156186;28;20041;-72
2022/11/03 01:00:28;;;;;;;15.88;5.38;;;;;;;2.36;100.00;98984.72;4157854;28;20044;-72
2022/11/03 01:02:28;;;;;;;11.63;5.30;;;;;;;2.38;100.00;98981.66;4156600;28;20057;-72
2022/11/03 01:06:50;;;;;;;9.18;4.22;;;;;;;2.45;100.00;98974.63;4155138;28;20052;-72
2022/11/03 01:08:51;;;;;;;9.82;3.80;;;;;;;2.47;100.00;98985.25;4155938;28;20934;-72
2022/11/03 01:13:24;;;;;;;7.88;3.47;;;;;;;2.39;100.00;98975.06;4123644;28;20044;-72
2022/11/03 01:15:24;;;;;;;9.70;3.85;;;;;;;2.40;100.00;98976.69;4154771;28;20046;-72
2022/11/03 01:17:27;;;;;;;6.32;3.17;;;;;;;2.40;100.00;98968.50;4156389;28;20428;-71
2022/11/03 01:19:27;;;;;;;;;;;;;;;2.40;100.00;98969.31;4162571;28;20064;-72
2022/11/03 01:21:28;;;;;;;7.32;3.30;;;;;;;2.38;100.00;98965.28;4156975;28;19916;-72
2022/11/03 01:23:28;;;;;;;6.57;3.38;;;;;;;2.37;100.00;98969.13;4153875;28;20041;-72
2022/11/03 01:25:28;;;;;;;7.18;3.40;;;;;;;2.34;100.00;98953.38;4154530;28;20496;-72
2022/11/03 01:27:29;;;;;;;9.50;3.15;;;;;;;2.34;100.00;98956.91;4154764;28;20052;-71
2022/11/03 01:29:29;;;;;;;8.60;3.20;;;;;;;2.34;100.00;98946.00;4161235;28;20360;-72
2022/11/03 01:31:29;;;;;;;6.82;2.90;;;;;;;2.30;100.00;98957.84;4156602;28;20444;-71
2022/11/03 01:33:30;;;;;;;6.07;2.78;;;;;;;2.27;100.00;98944.81;4154081;28;20049;-71
2022/11/03 01:35:30;;;;;;;7.82;3.47;;;;;;;2.25;100.00;98943.22;4158420;28;20080;-72
2022/11/03 01:37:30;;;;;;;5.63;3.03;;;;;;;2.23;100.00;98941.88;4155188;28;20047;-72
2022/11/03 01:39:31;;;;;;;5.32;2.80;;;;;;;2.19;100.00;98940.91;4155445;28;20312;-72
2022/11/03 01:41:31;;;;;;;9.63;3.92;;;;;;;2.19;100.00;98944.44;4155419;28;20046;-71
2022/11/03 01:43:31;;;;;;;8.50;3.22;;;;;;;2.22;100.00;98932.88;4153406;28;20084;-72
2022/11/03 01:45:32;;;;;;;7.40;3.30;;;;;;;2.23;100.00;98937.25;4154623;28;20042;-72
2022/11/03 01:47:35;;;;;;;6.60;3.15;;;;;;;2.24;100.00;98933.41;4155352;28;20041;-72
2022/11/03 01:50:04;;;;;;;9.00;3.17;;;;;;;2.28;100.00;98927.31;4154537;28;20110;-71
2022/11/03 01:52:10;;;;;;;5.55;3.22;;;;;;;2.30;100.00;98923.13;4156862;28;20123;-72
2022/11/03 01:54:14;;;;;;;6.05;3.00;;;;;;;2.36;100.00;98932.81;4153873;28;20033;-72
2022/11/03 01:56:16;;;;;;;6.70;3.25;;;;;;;2.45;100.00;98925.47;4159187;28;20021;-72
2022/11/03 01:58:24;;;;;;;6.65;2.75;;;;;;;2.40;100.00;98916.59;4158891;28;20434;-72
2022/11/03 02:00:25;;;;;;;11.23;3.50;;;;;;;2.32;100.00;98920.94;4156317;28;20048;-72
2022/11/03 02:02:26;;;;;;;8.02;3.28;;;;;;;2.19;100.00;98917.16;4156513;28;20045;-71
2022/11/03 02:04:30;;;;;;;5.70;2.70;;;;;;;2.11;100.00;98912.44;4153883;28;20838;-72
2022/11/03 02:06:31;;;;;;;6.38;3.15;;;;;;;2.01;100.00;98912.69;4155473;28;20121;-71
2022/11/03 02:08:46;;;;;;;5.90;3.13;;;;;;;1.91;100.00;98902.84;4155013;28;20398;-71
2022/11/03 02:10:48;;;;;;;7.00;3.53;;;;;;;1.84;100.00;98913.38;4154708;28;20316;-71
2022/11/03 02:12:49;;;;;;;7.95;3.30;;;;;;;1.89;100.00;98909.72;4153675;28;20033;-72
2022/11/03 02:15:00;;;;;;;6.43;3.28;;;;;;;1.84;100.00;98907.13;4154349;28;20124;-71
2022/11/03 02:17:04;;;;;;;8.77;3.63;;;;;;;1.85;100.00;98906.00;4156955;28;20432;-72
2022/11/03 02:19:12;;;;;;;10.55;3.03;;;;;;;1.91;100.00;98913.75;4167119;28;20048;-71
2022/11/03 02:21:24;;;;;;;6.38;2.80;;;;;;;1.99;100.00;98909.47;4154368;28;20612;-72
2022/11/03 02:23:33;;;;;;;4.68;2.58;;;;;;;2.16;100.00;98904.13;4157229;28;20041;-71
2022/11/03 02:25:52;;;;;;;6.50;3.70;;;;;;;2.30;100.00;98895.03;4157590;28;20103;-72
2022/11/03 02:27:52;;;;;;;7.22;3.42;;;;;;;2.34;100.00;98896.03;4155362;28;20049;-72
2022/11/03 02:29:53;;;;;;;7.15;3.53;;;;;;;2.40;100.00;98889.28;4155661;28;20324;-71
2022/11/03 02:32:10;;;;;;;6.22;2.72;;;;;;;2.48;100.00;98886.63;4160993;28;20047;-72
2022/11/03 02:34:23;;;;;;;8.20;2.88;;;;;;;2.58;100.00;98887.47;4160336;28;20069;-72
2022/11/03 02:36:30;;;;;;;3.80;2.60;;;;;;;2.66;100.00;98878.50;4156377;28;20386;-72
2022/11/03 02:38:35;;;;;;;5.60;2.90;;;;;;;2.78;100.00;98870.50;4158525;28;20490;-71
2022/11/03 02:40:42;;;;;;;3.92;2.50;;;;;;;2.96;100.00;98866.66;4156052;28;20256;-72
2022/11/03 02:42:47;;;;;;;6.50;2.63;;;;;;;3.10;100.00;98866.56;4155814;28;20046;-71
2022/11/03 02:44:48;;;;;;;10.88;2.80;;;;;;;3.18;100.00;98862.22;4165878;28;20037;-71
2022/11/03 02:46:55;;;;;;;9.48;2.58;;;;;;;3.22;100.00;98854.97;4157709;28;20473;-72
2022/11/03 02:48:56;;;;;;;8.00;2.03;;;;;;;3.27;100.00;98852.09;4158414;28;20119;-72
2022/11/03 02:50:56;;;;;;;9.65;2.85;;;;;;;3.27;100.00;98852.09;4157902;28;20103;-72
2022/11/03 02:52:57;;;;;;;4.55;2.28;;;;;;;3.23;100.00;98843.75;4156892;28;20478;-71
2022/11/03 02:55:04;;;;;;;6.35;3.00;;;;;;;3.25;100.00;98840.69;4160936;28;20052;-72
2022/11/03 02:57:13;;;;;;;4.88;2.20;;;;;;;3.23;100.00;98832.81;4157815;28;20041;-71
2022/11/03 02:59:19;;;;;;;9.13;2.67;;;;;;;3.27;100.00;98836.50;4161088;28;20054;-72
2022/11/03 03:01:31;;;;;;;6.13;2.00;;;;;;;3.24;100.00;98834.41;4157545;28;20493;-72
2022/11/03 03:03:36;;;;;;;4.70;2.28;;;;;;;3.19;100.00;98825.53;4159482;28;20049;-72
2022/11/03 03:05:41;;;;;;;10.75;2.65;;;;;;;3.22;100.00;98817.50;4156619;28;20482;-72
2022/11/03 03:07:45;;;;;;;4.22;2.08;;;;;;;3.22;100.00;98819.44;4158154;28;20048;-71
2022/11/03 03:09:58;;;;;;;4.47;1.83;;;;;;;3.17;100.00;98817.66;4157246;28;20045;-71
2022/11/03 03:12:01;;;;;;;5.90;2.20;;;;;;;3.16;100.00;98818.78;4158967;28;20045;-72
2022/11/03 03:14:10;;;;;;;9.05;2.40;;;;;;;3.16;100.00;98813.34;4158940;28;20470;-71
2022/11/03 03:16:15;;;;;;;4.55;2.15;;;;;;;3.18;100.00;98821.22;4156988;28;20085;-72
2022/11/03 03:18:26;;;;;;;4.72;2.50;;;;;;;3.17;100.00;98825.06;4161063;28;20036;-72
2022/11/03 03:20:36;;;;;;;7.00;2.10;;;;;;;3.16;100.00;98820.72;4156897;28;20079;-72
2022/11/03 03:22:59;;;;;;;5.00;2.30;;;;;;;3.12;100.00;98806.88;4157190;28;20556;-72
2022/11/03 03:25:04;;;;;;;5.40;2.05;;;;;;;3.05;100.00;98823.75;4156894;28;20048;-72
2022/11/03 03:27:09;;;;;;;5.80;2.20;;;;;;;2.88;100.00;98820.19;4156814;28;20471;-71
2022/11/03 03:29:26;;;;;;;5.85;2.15;;;;;;;2.71;100.00;98823.69;4159721;28;20083;-72
2022/11/03 03:31:31;;;;;;;5.57;2.38;;;;;;;2.67;100.00;98818.06;4155972;28;20381;-72
2022/11/03 03:33:33;;;;;;;4.70;2.55;;;;;;;2.63;100.00;98822.53;4157637;28;20429;-71
2022/11/03 03:35:38;;;;;;;9.77;3.70;;;;;;;2.61;100.00;98807.59;4156671;28;20049;-72
2022/11/03 03:37:42;;;;;;;4.68;2.10;;;;;;;2.61;100.00;98811.13;4157532;28;20087;-72
2022/11/03 03:39:47;;;;;;;6.63;2.17;;;;;;;2.60;100.00;98804.06;4155760;28;20073;-72
2022/11/03 03:41:48;;;;;;;5.55;2.65;;;;;;;2.67;100.00;98804.41;4157981;28;20874;-71
2022/11/03 03:43:51;;;;;;;2.50;1.92;;;;;;;2.63;100.00;98808.09;4161157;28;20227;-71
2022/11/03 03:45:55;;;;;;;8.38;2.40;;;;;;;2.58;100.00;98803.59;4157822;28;20476;-72
2022/11/03 03:47:57;;;;;;;7.90;2.85;;;;;;;2.60;100.00;98797.81;4155087;28;20044;-71
2022/11/03 03:49:57;;;;;;;6.00;2.05;;;;;;;2.56;100.00;98808.53;4158454;28;20465;-72
2022/11/03 03:51:58;;;;;;;6.30;2.72;;;;;;;2.55;100.00;98804.22;4155866;28;20061;-72
2022/11/03 03:53:58;;;;;;;4.88;2.10;;;;;;;2.52;100.00;98804.84;4157269;28;20398;-72
2022/11/03 03:55:59;;;;;;;6.18;1.92;;;;;;;2.51;100.00;98800.50;4156736;28;20049;-72
2022/11/03 03:57:59;;;;;;;5.93;2.58;;;;;;;2.52;100.00;98802.13;4156313;28;20040;-71
2022/11/03 04:00:00;;;;;;;7.07;2.75;;;;;;;2.51;100.00;98805.97;4156790;28;20046;-71
2022/11/03 04:02:01;;;;;;;6.57;2.47;;;;;;;2.55;100.00;98806.94;4156084;28;20232;-72
2022/11/03 04:04:02;;;;;;;8.60;3.65;;;;;;;2.50;100.00;98799.72;4156299;28;20377;-71
2022/11/03 04:06:02;;;;;;;6.03;2.40;;;;;;;2.52;100.00;98802.13;4156969;28;20068;-72
2022/11/03 04:08:03;;;;;;;6.78;2.60;;;;;;;2.48;100.00;98801.13;4159787;28;20029;-71
2022/11/03 04:10:03;;;;;;;7.07;2.60;;;;;;;2.47;100.00;98800.31;4156074;28;20048;-72
2022/11/03 04:23:38;;;;;;;5.05;2.47;;;;;;;2.32;100.00;98792.59;4155540;28;20703;-71
2022/11/03 04:25:39;;;;;;;4.60;2.40;;;;;;;2.25;100.00;98784.06;4157205;28;20045;-72
2022/11/03 04:27:43;;;;;;;9.70;3.08;;;;;;;2.17;100.00;98798.47;4162380;28;20045;-71
2022/11/03 04:29:43;;;;;;;6.80;2.47;;;;;;;2.16;100.00;98792.22;4157281;28;20065;-71
2022/11/03 04:31:44;;;;;;;4.97;2.63;;;;;;;2.07;100.00;98779.63;4156106;28;20053;-71
2022/11/03 04:33:44;;;;;;;8.10;3.13;;;;;;;2.01;100.00;98786.34;4154600;28;20192;-71
2022/11/03 04:35:46;;;;;;;5.57;2.25;;;;;;;1.97;100.00;98770.59;4155997;28;20531;-72
2022/11/03 04:37:59;;;;;;;4.25;2.80;;;;;;;1.95;100.00;98777.50;4155255;28;20172;-72
2022/11/03 04:40:00;;;;;;;4.82;2.55;;;;;;;1.93;100.00;98761.44;4162051;28;20052;-72
2022/11/03 04:42:00;;;;;;;6.88;2.60;;;;;;;1.95;100.00;98763.84;4158930;28;20041;-71
2022/11/03 04:44:00;;;;;;;7.15;2.60;;;;;;;2.01;100.00;98764.53;4155101;28;20140;-71
2022/11/03 04:46:01;;;;;;;7.10;3.03;;;;;;;2.07;100.00;98765.97;4155135;28;20045;-72
2022/11/03 04:48:10;;;;;;;6.93;2.92;;;;;;;2.14;100.00;98760.88;4154686;28;20029;-71
2022/11/03 04:50:16;;;;;;;6.05;3.03;;;;;;;2.12;100.00;98758.47;4156299;28;20029;-72
2022/11/03 04:52:21;;;;;;;5.72;2.88;;;;;;;2.01;100.00;98754.41;4156256;28;20060;-72
2022/11/03 04:54:22;;;;;;;4.78;2.75;;;;;;;1.97;100.00;98754.22;4154874;28;20392;-72
2022/11/03 04:56:23;;;;;;;4.55;2.75;;;;;;;1.94;100.00;98745.88;4155158;28;20068;-71
2022/11/03 04:58:34;;;;;;;7.57;3.22;;;;;;;1.93;100.00;98757.91;4162630;28;20125;-72
2022/11/03 05:00:34;;;;;;;8.82;3.10;;;;;;;1.87;100.00;98749.03;4156106;28;20390;-71
2022/11/03 05:02:35;;;;;;;5.85;3.10;;;;;;;1.86;100.00;98743.91;4157731;28;20072;-72
2022/11/03 05:04:35;;;;;;;3.60;2.75;;;;;;;1.86;100.00;98749.34;4157312;28;20044;-71
2022/11/03 05:06:36;;;;;;;4.15;2.92;;;;;;;1.90;100.00;98748.44;4156294;28;20575;-71
2022/11/03 05:08:36;;;;;;;5.57;2.63;;;;;;;1.90;100.00;98740.25;4153508;28;20140;-72
2022/11/03 05:10:37;;;;;;;5.30;2.97;;;;;;;1.91;100.00;98735.59;4161523;28;20038;-71
2022/11/03 05:12:37;;;;;;;6.53;2.88;;;;;;;1.90;100.00;98728.50;4154533;28;20562;-72
2022/11/03 05:14:38;;;;;;;4.13;2.80;;;;;;;1.96;100.00;98728.06;4154123;28;20128;-72
2022/11/03 05:16:38;;;;;;;7.43;2.83;;;;;;;1.92;100.00;98732.53;4155422;28;20056;-71
2022/11/03 05:18:42;;;;;;;5.28;3.30;;;;;;;1.83;100.00;98737.16;4154802;28;20293;-71
2022/11/03 05:20:50;;;;;;;8.07;3.30;;;;;;;1.75;100.00;98723.47;4156110;28;20076;-72
2022/11/03 05:22:50;;;;;;;6.63;3.42;;;;;;;1.72;100.00;98726.81;4160132;28;20162;-71
2022/11/03 05:25:01;;;;;;;8.55;3.50;;;;;;;1.71;100.00;98725.22;4156143;28;20153;-71
2022/11/03 05:27:01;;;;;;;8.07;3.00;;;;;;;1.64;100.00;98709.28;4155114;28;20091;-71
2022/11/03 05:29:07;;;;;;;5.20;3.10;;;;;;;1.64;100.00;98707.38;4156155;28;20041;-72
2022/11/03 05:31:35;;;;;;;5.57;3.10;;;;;;;1.63;100.00;98702.22;4154477;28;20060;-72
2022/11/03 05:33:36;;;;;;;5.05;3.00;;;;;;;1.61;100.00;98693.56;4150883;28;20079;-72
2022/11/03 05:35:36;;;;;;;5.80;3.03;;;;;;;1.62;100.00;98690.50;4159915;28;20037;-71
2022/11/03 05:37:37;;;;;;;10.40;3.30;;;;;;;1.65;100.00;98695.34;4155405;28;20478;-71
2022/11/03 05:39:42;;;;;;;7.95;2.83;;;;;;;1.63;100.00;98688.59;4155029;28;20129;-72
2022/11/03 05:41:42;;;;;;;3.60;3.05;;;;;;;1.58;100.00;98689.53;4154960;28;20050;-71
2022/11/03 05:43:43;;;;;;;5.32;3.25;;;;;;;1.56;100.00;98690.97;4156001;28;20057;-72
2022/11/03 05:45:43;;;;;;;5.68;3.05;;;;;;;1.52;100.00;98684.53;4158334;28;20049;-71
2022/11/03 05:47:44;;;;;;;7.68;2.83;;;;;;;1.60;100.00;98683.78;4155105;28;20177;-71
2022/11/03 05:49:45;;;;;;;5.25;2.60;;;;;;;1.56;100.00;98691.75;4155663;28;20482;-71
2022/11/03 05:51:46;;;;;;;10.20;3.00;;;;;;;1.57;100.00;98690.66;4155206;28;20049;-71
2022/11/03 05:53:54;;;;;;;5.93;3.10;;;;;;;1.59;100.00;98687.63;4154793;28;20604;-71
2022/11/03 05:55:57;;;;;;;6.28;2.95;;;;;;;1.58;100.00;98681.38;4158738;28;20808;-71
2022/11/03 05:58:02;;;;;;;7.38;3.13;;;;;;;1.59;100.00;98676.72;4155485;28;20048;-71
2022/11/03 06:00:04;;;;;;;11.05;3.45;;;;;;;1.64;100.00;98671.91;4155246;28;20394;-71
2022/11/03 06:02:34;;;;;;;9.98;3.40;;;;;;;1.65;100.00;98678.97;4154585;28;20116;-71
2022/11/03 06:04:38;;;;;;;8.30;2.97;;;;;;;1.72;100.00;98683.16;4157100;28;20049;-71
2022/11/03 06:06:38;;;;;;;7.22;3.28;;;;;;;1.73;100.00;98665.69;4126758;28;20053;-71
2022/11/03 06:08:39;;;;;;;5.20;2.97;;;;;;;1.75;100.00;98671.66;4156300;28;20064;-72
2022/11/03 06:10:44;;;;;;;9.77;3.55;;;;;;;1.77;100.00;98678.38;4160035;28;20116;-71
2022/11/03 06:12:44;;;;;;;7.18;3.10;;;;;;;1.82;100.00;98661.06;4153850;28;20041;-72
2022/11/03 06:14:44;;;;;;;7.07;3.20;;;;;;;1.87;100.00;98664.47;4155858;28;20045;-72
2022/11/03 06:17:00;;;;;;;11.75;3.67;;;;;;;1.90;100.00;98663.84;4158341;28;20171;-71
2022/11/03 06:19:11;;;;;;;7.40;3.70;;;;;;;1.98;100.00;98664.97;4161152;28;20048;-71
2022/11/03 06:21:18;;;;;;;11.57;4.30;;;;;;;2.07;100.00;98662.25;4160954;28;20049;-71
2022/11/03 06:23:19;;;;;;;7.57;4.63;;;;;;;2.13;100.00;98669.19;4156866;28;20149;-71
2022/11/03 06:25:28;;;;;;;11.77;4.50;;;;;;;2.18;100.00;98664.38;4158914;28;20045;-71
2022/11/03 06:27:33;;;;;;;8.13;4.20;;;;;;;2.19;100.00;98654.28;4161010;28;20053;-71
2022/11/03 06:29:33;;;;;;;8.95;4.30;;;;;;;2.24;100.00;98663.13;4157543;28;20107;-71
2022/11/03 06:31:33;;;;;;;14.02;4.35;;;;;;;2.25;100.00;98663.91;4157067;28;20842;-72
2022/11/03 06:33:35;;;;;;;13.45;5.25;;;;;;;2.28;100.00;98654.28;4156990;28;20045;-71
2022/11/03 06:35:35;;;;;;;8.35;4.30;;;;;;;2.31;100.00;98650.91;4160681;28;20084;-71
2022/11/03 06:37:35;;;;;;;11.82;5.00;;;;;;;2.31;100.00;98646.25;4159189;28;20412;-71
2022/11/03 06:39:35;;;;;;;14.43;6.35;;;;;;;2.29;100.00;98656.69;4159668;28;20243;-71
2022/11/03 06:41:36;;;;;;;11.55;6.78;;;;;;;2.30;100.00;98643.84;4158693;28;20373;-71
2022/11/03 06:43:41;;;;;;;12.77;6.22;;;;;;;2.37;100.00;98657.81;4158162;28;20131;-71
2022/11/03 06:45:51;;;;;;;14.13;7.82;;;;;;;2.40;100.00;98654.44;4155998;28;20049;-71
2022/11/03 06:47:53;;;;;;;28.17;12.10;;;;;;;2.44;100.00;98658.97;4158393;28;20128;-71
2022/11/03 06:50:00;;;;;;;22.42;10.20;;;;;;;2.53;100.00;98667.16;4158340;28;20051;-71
2022/11/03 06:52:23;;;;;;;27.88;8.73;;;;;;;2.54;100.00;98657.84;4156514;28;20108;-71
2022/11/03 06:54:23;;;;;;;15.55;7.32;;;;;;;2.58;100.00;98658.81;4157531;28;20045;-72
2022/11/03 06:56:27;;;;;;;14.07;6.43;;;;;;;2.61;100.00;98660.91;4159637;28;20037;-71
2022/11/03 06:58:36;;;;;;;16.67;6.25;;;;;;;2.59;100.00;98646.75;4159911;28;20147;-72
2022/11/03 07:00:39;;;;;;;10.32;5.15;;;;;;;2.61;100.00;98649.16;4160095;28;20410;-71
2022/11/03 07:02:49;;;;;;;;;;;;;;;2.61;100.00;98654.63;4159543;28;20045;-71
2022/11/03 07:04:49;;;;;;;12.45;5.80;;;;;;;2.60;100.00;98642.91;4158814;28;20235;-71
2022/11/03 07:06:49;;;;;;;16.05;5.88;;;;;;;2.62;100.00;98637.91;4159568;28;20477;-71
2022/11/03 07:08:53;;;;;;;13.35;5.88;;;;;;;2.67;100.00;98642.41;4162435;28;20108;-71
2022/11/03 07:11:01;;;;;;;17.13;5.88;;;;;;;2.75;100.00;98644.34;4157349;28;20053;-71
2022/11/03 07:13:22;;;;;;;11.85;6.15;;;;;;;2.76;100.00;98637.75;4159396;28;20477;-71
2022/11/03 07:15:36;;;;;;;10.52;5.45;;;;;;;2.80;100.00;98646.91;4161441;28;20579;-72
2022/11/03 07:17:36;;;;;;;11.65;5.13;;;;;;;2.79;100.00;98635.16;4159873;28;20037;-72
2022/11/03 07:19:43;;;;;;;13.52;5.90;;;;;;;2.80;100.00;98633.25;4158068;28;20049;-71
2022/11/03 07:21:47;;;;;;;12.55;6.20;;;;;;;2.83;100.00;98638.06;4157824;28;20049;-71
2022/11/03 07:23:47;;;;;;;9.63;5.80;;;;;;;2.86;100.00;98637.41;4158663;28;20123;-71
2022/11/03 07:25:58;;;;;;;12.50;5.07;;;;;;;2.89;100.00;98647.69;4158738;28;20065;-71
2022/11/03 07:28:01;;;;;;;11.23;5.03;;;;;;;2.90;100.00;98641.13;4160629;28;20520;-71
2022/11/03 07:30:25;;;;;;;;;;;;;;;2.89;100.00;98639.50;4161228;28;20401;-72
2022/11/03 07:32:28;;;;;;;;;;;;;;;2.89;100.00;98636.75;4158544;28;19923;-72
2022/11/03 07:34:32;;;;;;;8.40;5.25;;;;;;;2.90;100.00;98641.13;4158762;28;19917;-72
2022/11/03 07:36:32;;;;;;;9.18;4.90;;;;;;;2.90;100.00;98632.94;4158938;28;20630;-71
2022/11/03 07:38:33;;;;;;;12.57;7.07;;;;;;;2.95;100.00;98640.94;4158210;28;20045;-71
2022/11/03 07:40:33;;;;;;;13.45;7.85;;;;;;;2.98;100.00;98636.75;4159873;28;20052;-71
2022/11/03 07:42:34;;;;;;;22.40;9.40;;;;;;;3.01;100.00;98633.38;4159950;28;20047;-71
2022/11/03 07:44:34;;;;;;;17.00;8.18;;;;;;;3.05;100.00;98635.13;4157349;28;20135;-72
2022/11/03 07:46:35;;;;;;;12.00;7.03;;;;;;;3.16;100.00;98624.69;4157439;28;20942;-71
2022/11/03 07:48:48;;;;;;;13.02;7.45;;;;;;;3.21;100.00;98615.47;4161998;28;20037;-71
2022/11/03 07:50:51;;;;;;;9.82;6.38;;;;;;;3.29;100.00;98611.91;4158842;28;20333;-72
2022/11/03 07:52:52;;;;;;;12.32;6.75;;;;;;;3.35;100.00;98596.94;4159044;28;20045;-71
2022/11/03 07:54:55;;;;;;;17.38;6.95;;;;;;;3.46;100.00;98600.09;4156545;28;20045;-72
2022/11/03 07:57:24;;;;;;;10.77;6.32;;;;;;;3.55;100.00;98590.72;4160630;28;20046;-72
2022/11/03 07:59:50;;;;;;;11.02;6.15;;;;;;;3.62;100.00;98592.97;4153175;28;20127;-71
2022/11/03 08:01:52;;;;;;;9.30;5.50;;;;;;;3.71;100.00;98604.66;4161513;28;20431;-71
2022/11/03 08:03:58;;;;;;;10.90;5.13;;;;;;;3.79;100.00;98594.81;4157263;28;20037;-72
2022/11/03 08:05:58;;;;;;;8.07;4.70;;;;;;;3.87;100.00;98592.00;4164804;28;20047;-71
2022/11/03 08:07:58;;;;;;;10.07;4.97;;;;;;;3.95;100.00;98584.88;4159546;28;20042;-71
2022/11/03 08:09:59;;;;;;;10.05;5.03;;;;;;;4.08;100.00;98578.38;4155634;28;20470;-72
2022/11/03 08:12:00;;;;;;;12.88;5.05;;;;;;;4.22;100.00;98583.59;4160197;28;20045;-71
2022/11/03 08:14:00;;;;;;;7.82;4.40;;;;;;;4.29;100.00;98577.56;4155594;28;20050;-72
2022/11/03 08:16:00;;;;;;;10.45;4.93;;;;;;;4.37;100.00;98572.00;4155515;28;20034;-72
2022/11/03 08:18:01;;;;;;;9.35;4.28;;;;;;;4.46;100.00;98571.94;4158070;28;20052;-71
2022/11/03 08:20:01;;;;;;;9.73;4.57;;;;;;;4.53;100.00;98564.00;4161716;28;20037;-71
2022/11/03 08:22:01;;;;;;;13.20;5.38;;;;;;;4.67;100.00;98560.97;4155946;28;20386;-72
2022/11/03 08:24:02;;;;;;;13.77;4.93;;;;;;;4.76;100.00;98557.00;4155703;28;20029;-72
2022/11/03 08:26:02;;;;;;;10.27;4.43;;;;;;;4.86;100.00;98546.75;4155661;28;20730;-72
2022/11/03 08:28:03;;;;;;;15.23;6.15;;;;;;;4.95;100.00;98542.78;4157899;28;20060;-72
2022/11/03 08:30:04;;;;;;;10.73;4.60;;;;;;;5.05;100.00;98536.88;4155341;28;20366;-71
2022/11/03 08:32:04;;;;;;;7.88;4.47;;;;;;;5.16;100.00;98536.44;4155708;28;20072;-72
2022/11/03 08:34:04;;;;;;;9.07;5.43;;;;;;;5.23;100.00;98531.19;4159378;28;20024;-72
2022/11/03 08:36:06;;;;;;;11.35;5.70;;;;;;;5.29;100.00;98525.09;4155574;28;20570;-72
2022/11/03 08:38:06;;;;;;;9.13;5.38;;;;;;;5.40;100.00;98527.41;4155946;28;20398;-72
2022/11/03 08:40:07;;;;;;;9.05;4.25;;;;;;;5.51;100.00;98525.81;4155826;28;20044;-72
2022/11/03 08:42:08;;;;;;;11.48;4.75;;;;;;;5.59;100.00;98516.66;4155713;28;20022;-72
2022/11/03 08:44:08;;;;;;;9.43;4.55;;;;;;;5.71;100.00;98521.34;4156834;28;20068;-72
2022/11/03 08:46:08;;;;;;;11.27;5.03;;;;;;;5.78;100.00;98503.13;4155221;28;20373;-72
2022/11/03 08:48:08;;;;;;;6.80;4.00;;;;;;;5.90;100.00;98499.59;4161939;28;20116;-71
2022/11/03 08:50:09;;;;;;;6.32;4.50;;;;;;;6.01;100.00;98497.19;4154209;28;20395;-72
2022/11/03 08:52:09;;;;;;;7.25;4.32;;;;;;;6.12;100.00;98490.03;4159507;28;20033;-72
2022/11/03 08:54:10;;;;;;;11.25;4.20;;;;;;;6.22;100.00;98499.75;4155808;28;20029;-72
2022/11/03 08:56:11;;;;;;;7.68;4.95;;;;;;;6.24;100.00;98487.28;4154196;28;20036;-72
2022/11/03 08:58:11;;;;;;;6.30;3.35;;;;;;;6.37;100.00;98483.34;4154483;28;20029;-72
2022/11/03 09:00:13;;;;;;;14.23;5.50;;;;;;;6.50;100.00;98486.81;4155905;28;20103;-72
2022/11/03 09:02:13;;;;;;;19.60;10.05;;;;;;;6.63;100.00;98491.13;4156133;28;20053;-72
2022/11/03 09:04:13;;;;;;;10.95;6.25;;;;;;;6.82;100.00;98479.44;4153155;28;20343;-72
2022/11/03 09:06:14;;;;;;;9.30;5.45;;;;;;;7.00;100.00;98475.19;4156615;28;20124;-72
2022/11/03 09:08:14;;;;;;;11.20;4.65;;;;;;;7.11;100.00;98467.19;4156883;28;20112;-72
2022/11/03 09:10:14;;;;;;;13.93;4.95;;;;;;;7.16;97.13;98466.94;4156913;28;20771;-72
2022/11/03 09:12:15;;;;;;;7.45;4.55;;;;;;;7.29;99.76;98470.41;4155554;28;20041;-72
2022/11/03 09:14:16;;;;;;;9.10;5.65;;;;;;;7.47;100.00;98466.13;4155668;28;20036;-72
2022/11/03 09:16:16;;;;;;;10.35;5.28;;;;;;;7.57;100.00;98467.50;4158163;28;20029;-72
2022/11/03 09:18:16;;;;;;;16.08;8.07;;;;;;;7.65;100.00;98458.25;4157042;28;20022;-72
2022/11/03 09:20:17;;;;;;;14.88;7.95;;;;;;;7.72;100.00;98444.66;4161657;28;20116;-72
2022/11/03 09:22:17;;;;;;;12.77;7.18;;;;;;;7.73;100.00;98445.44;4157850;28;20032;-71
2022/11/03 09:24:17;;;;;;;15.27;9.00;;;;;;;7.77;100.00;98441.59;4155136;28;20025;-71
2022/11/03 09:26:19;;;;;;;13.48;8.30;;;;;;;7.76;98.85;98434.50;4157112;28;20336;-72
2022/11/03 09:28:19;;;;;;;12.88;8.13;;;;;;;7.81;100.00;98436.19;4159462;28;20091;-72
2022/11/03 09:30:19;;;;;;;16.15;8.60;;;;;;;7.82;99.61;98427.56;4159885;28;20447;-71
2022/11/03 09:32:20;;;;;;;15.40;7.93;;;;;;;7.82;99.58;98424.78;4163098;28;20351;-71
2022/11/03 09:34:20;;;;;;;14.85;7.90;;;;;;;7.85;100.00;98426.03;4161888;28;20064;-72
2022/11/03 09:36:21;;;;;;;14.73;7.07;;;;;;;7.86;100.00;98427.63;4157630;28;20111;-72
2022/11/03 09:38:21;;;;;;;7.25;4.53;;;;;;;7.92;100.00;98422.63;4155053;28;20398;-71
2022/11/03 09:40:21;;;;;;;8.23;3.95;;;;;;;7.96;100.00;98426.28;4154047;28;20041;-71
2022/11/03 09:42:22;;;;;;;9.82;3.85;;;;;;;8.01;100.00;98420.44;4158745;28;20046;-71
2022/11/03 09:44:23;;;;;;;9.40;3.75;;;;;;;8.02;100.00;98422.03;4156587;28;20045;-72
2022/11/03 09:46:25;;;;;;;6.18;3.50;;;;;;;8.06;100.00;98429.22;4154091;28;20042;-72
2022/11/03 09:48:26;;;;;;;7.13;4.40;;;;;;;8.06;100.00;98420.19;4156976;28;20080;-72
2022/11/03 09:50:26;;;;;;;6.20;3.55;;;;;;;8.13;100.00;98418.38;4157790;28;20064;-71
2022/11/03 09:52:27;;;;;;;7.25;4.53;;;;;;;8.10;95.69;98415.53;4160233;28;20049;-72
2022/11/03 09:54:28;;;;;;;9.38;5.18;;;;;;;8.13;97.89;98401.81;4157456;28;20421;-72
2022/11/03 09:56:30;;;;;;;6.50;3.10;;;;;;;8.32;100.00;98414.00;4162358;28;20584;-72
2022/11/03 09:58:32;;;;;;;7.40;3.75;;;;;;;8.42;100.00;98399.63;4157670;28;20506;-72
2022/11/03 10:00:33;;;;;;;7.35;4.13;;;;;;;8.53;99.24;98405.38;4157221;28;20050;-72